x

Matinicus Rock, Me (mism1) Weather Station

2:00 - Sat 19th Aug 2017 All times are EDT. -4 hours from GMT.

  • Wind
    22mph, 23mph gusts
  • Aire Temp 60°f
  • Sea Pressure 1008.6mb
  • Matinicus Rock, Me
  • Matinicus Rock, Me

More Historic Weather Station data

Upgrade to MSW Pro to gain access to the past 30 days of data for over 8000 Wavebouys and Weather Stations around the globe.

Join

Comparision Forecast

View Surf forecast
   
sáb 08/19 2:00 22 23 mph 1008.6mb 60f
1:00 29 30 mph 1009.2mb 61f
12:00 32 34 mph 1010.1mb 63f
vie 08/18 11:00 30 32 mph 1010.5mb 60f
10:00 34 39 mph 1011.1mb 61f
9:00 31 33 mph 1011.3mb 60f
8:00 33 36 mph 1011.7mb 59f
6:00 28 29 mph 1012.9mb 58f
5:00 17 18 mph 1013.4mb 58f
4:00 18 20 mph 1013.9mb 59f
3:00 11 13 mph 1014.8mb 61f
2:00 10 11 mph 1014.9mb 60f
1:00 8 9 mph 1015.3mb 60f
12:00 7 8 mph 1015.6mb 61f
11:00 9 10 mph 1015.1mb 60f
10:00 10 11 mph 1015.2mb 61f
9:00 11 11 mph 1014.9mb 61f
8:00 11 13 mph 1014.9mb 61f
7:00 8 9 mph 1014.8mb 59f
6:00 9 9 mph 1014.8mb 61f
5:00 9 9 mph 1014.9mb 61f
4:00 11 11 mph 1014.8mb 64f
3:00 11 11 mph 1014.7mb 64f
2:00 9 9 mph 1015mb 65f
1:00 10 10 mph 1015.1mb 66f
12:00 10 10 mph 1014.9mb 65f
jue 08/17 11:00 13 13 mph 1015mb 63f
10:00 14 14 mph 1014.8mb 67f
9:00 20 20 mph 1014.4mb 65f
8:00 15 16 mph 1013.8mb 63f
7:00 18 18 mph 1013.5mb 63f
6:00 22 22 mph 1013.1mb 63f
5:00 21 22 mph 1012.8mb 63f
4:00 20 21 mph 1013mb 62f
3:00 18 20 mph 1013.4mb 62f
2:00 18 18 mph 1013.8mb 62f
1:00 15 16 mph 1014.2mb 60f
12:00 17 18 mph 1014.5mb 60f
11:00 18 20 mph 1015mb 60f
10:00 16 17 mph 1015.5mb 61f
9:00 17 18 mph 1015.4mb 60f
8:00 20 20 mph 1015.4mb 60f
7:00 20 21 mph 1015.3mb 59f
6:00 17 17 mph 1014.6mb 59f
5:00 18 20 mph 1014.4mb 59f
4:00 15 15 mph 1014.4mb 59f
3:00 14 14 mph 1014.3mb 59f
2:00 16 16 mph 1014.2mb 60f
1:00 14 15 mph 1014.4mb 60f
12:00 16 16 mph 1014.6mb 62f
mié 08/16 11:00 14 14 mph 1014.7mb 63f
10:00 18 18 mph 1014.1mb 65f
9:00 18 18 mph 1013.7mb 66f
8:00 18 20 mph 1012.7mb 67f
7:00 14 15 mph 1011.9mb 66f
6:00 9 10 mph 1011.4mb 71f
5:00 16 16 mph 1011.3mb 70f
4:00 5 6 mph 1011.2mb 67f
3:00 9 10 mph 1011.3mb 68f
2:00 9 9 mph 1011.3mb 67f
1:00 8 9 mph 1011.3mb 65f
12:00  -  2 mph 1011.5mb 67f
11:00 2 2 mph 1011.6mb 65f
10:00 5 6 mph 1011.5mb 63f
9:00 7 8 mph 1011.4mb 61f
8:00 10 10 mph 1011.1mb 60f
7:00 13 13 mph 1010.6mb 61f
6:00 13 13 mph 1010.2mb 61f
5:00 14 14 mph 1009.8mb 62f
4:00 16 16 mph 1009.5mb 62f
3:00 18 18 mph 1009.5mb 63f
2:00 22 23 mph 1009.3mb 64f
1:00 18 20 mph 1009.5mb 63f
12:00 20 20 mph 1010.2mb 64f
mar 08/15 11:00 21 22 mph 1010.5mb 64f
10:00 20 20 mph 1010.9mb 63f
9:00 18 20 mph 1010.7mb 63f
8:00 21 22 mph 1010.9mb 63f
7:00 21 22 mph 1011.2mb 62f
6:00 14 15 mph 1011mb 64f
5:00 17 17 mph 1011.5mb 63f
4:00 14 15 mph 1012.4mb 61f
3:00 13 13 mph 1012.5mb 61f
2:00 8 9 mph 1012.8mb 64f
1:00 10 10 mph 1013mb 63f
12:00 11 11 mph 1013.4mb 62f
11:00 13 14 mph 1013.6mb 62f
10:00 14 15 mph 1013.5mb 62f
9:00 10 11 mph 1013.9mb 60f
8:00 10 10 mph 1013.7mb 62f